Norcross, Minnesota
Current Conditions -  °F | °C
As of 3:17 AM on Wednesday 28 Jan 2015 (Local Time) from KY63 Reporting Station
Overcast Overcast  
Wind Chill: 19°   Ceiling: 800
Heat Index: 32°   Visibility: 7mi
Dew Point: 30°   Wind: 21mph
Humidity: 94%   Direction: 150°SSE
Pressure: 29.87"   Gusts: 25mph
Location:  45.87°N, 96.2°W
Report Text: KY63 280917Z AUTO 15018G22KT 7SM OVC008 00/M01 A2987 RMK AO2 T10021010
Loading
Personal Weather Stations






























Interactive Weather Map New forecast layout! Learn more

10-Day Weather Forecast

Advertisements
Track Severe Weather on mobile